Airfield :
LOGIN :

Register | Disclaimer

   EN    FR    IT 

 










Legend :    VFR   Marginal VFR   IFR   Intensive IFR   Very Intensive IFR
Visi :
Ceiling :
>= 8 km
>= 3000ft
5 to 8 km
1000 to 3000 ft
1500m to 5 km
500 to 1000 ft
800 to 1500m
200 to 500 ft
< 800m
< 200 ft
Symbols :   Thunderstorms  Fog  Heavy snow  Heavy precipitations  Wind > 20 kt
SIGMETs :     Misc.  Thunderstorms  Icing  Turbulence  Mountain Waves  Volcanic Ashes






- Airport Elevation : 16 ft
- IATA code : SDR


LEXJ - Santander Cantabria

CURRENT METAR :
  • 170230Z AUTO 23007KT 9999 SCT025 09/03 Q1029

EXPIRED METARs :
  • 170200Z AUTO 23006KT 9999 SCT024 10/03 Q1029
  • 170130Z AUTO 22006KT 9999 SCT021 09/02 Q1029
  • 170100Z AUTO 24006KT 210V290 9999 OVC020 11/04 Q1029
  • 170030Z AUTO 25006KT 9999 OVC019 11/05 Q1029
  • 170000Z AUTO 27004KT 210V330 9999 BKN020 OVC025 09/M00 Q1029

TAF TAF LEXJ
Valid from the 17 at 03:00 until the 18 at 03:00 UTC


170200Z 1703/1803 23007KT 9999 BKN020 BKN035 TX12/1713Z TN07/1703Z
PROB40
TEMPO 1713/1803 3000 RA
PROB40
TEMPO 1718/1803 BKN005 BKN010



MET'MAP, your aeronautical weather chart ! - Copyright ORBIFLY December 2007 - Disclaimer

ORBIFLY MET'MAP TEAM :

Programming & Development : Alexandra Zaïnal
Concept & original design : Baudouin d'Aumeries
Assistance for programming : Marc-Olivier Méhu
Technical & hardware support : Manuel Goepfert

Contact : metmap@orbifly.com




SOURCES & CREDITS :

   NOAA